createdAt,value
2022-10-26T00:01:16.861Z,8.52
2022-10-26T00:03:45.825Z,9.02
2022-10-26T00:06:19.460Z,9.10
2022-10-26T00:08:47.613Z,8.88
2022-10-26T00:11:16.084Z,8.45
2022-10-26T00:13:44.225Z,9.55
2022-10-26T00:16:14.756Z,8.95
2022-10-26T00:18:42.229Z,9.18
2022-10-26T00:21:10.439Z,9.27
2022-10-26T00:23:38.490Z,10.40
2022-10-26T00:26:07.038Z,9.02
2022-10-26T00:28:34.551Z,8.85
2022-10-26T00:31:08.398Z,10.35
2022-10-26T00:33:36.110Z,11.00
2022-10-26T00:36:03.822Z,13.25
2022-10-26T00:38:31.327Z,12.60
2022-10-26T00:40:58.716Z,10.70
2022-10-26T00:43:26.129Z,10.40
2022-10-26T00:45:57.328Z,10.23
2022-10-26T00:48:32.669Z,9.45
2022-10-26T00:51:05.976Z,12.55
2022-10-26T00:53:33.677Z,13.07
2022-10-26T00:56:02.235Z,11.75
2022-10-26T00:58:30.231Z,14.23
2022-10-26T01:00:57.850Z,12.27
2022-10-26T01:03:25.628Z,11.20
2022-10-26T01:05:56.895Z,11.43
2022-10-26T01:08:25.636Z,11.32
2022-10-26T01:10:53.345Z,9.73
2022-10-26T01:13:21.240Z,9.95
2022-10-26T01:16:35.093Z,10.15
2022-10-26T01:19:18.637Z,9.60
2022-10-26T01:22:32.434Z,11.40
2022-10-26T01:25:13.289Z,11.35
2022-10-26T01:27:44.458Z,10.43
2022-10-26T01:30:17.127Z,10.82
2022-10-26T01:32:59.443Z,10.52
2022-10-26T01:35:34.968Z,12.02
2022-10-26T01:38:29.867Z,10.93
2022-10-26T01:41:21.469Z,10.60
2022-10-26T01:43:58.643Z,10.80
2022-10-26T01:46:29.741Z,10.38
2022-10-26T01:49:01.963Z,10.70
2022-10-26T01:51:31.889Z,10.00
2022-10-26T01:53:59.662Z,10.32
2022-10-26T01:56:34.656Z,9.50
2022-10-26T01:59:11.179Z,8.70
2022-10-26T02:01:55.312Z,8.93
2022-10-26T02:04:41.068Z,8.82
2022-10-26T02:07:18.378Z,9.27
2022-10-26T02:10:09.038Z,9.48
2022-10-26T02:13:04.592Z,9.00
2022-10-26T02:15:41.700Z,9.40
2022-10-26T02:18:51.371Z,9.27
2022-10-26T02:21:23.768Z,8.73
2022-10-26T02:23:54.735Z,9.32
2022-10-26T02:26:24.949Z,9.88
2022-10-26T02:28:57.896Z,9.43
2022-10-26T02:31:27.025Z,8.77
2022-10-26T02:33:57.837Z,8.80
2022-10-26T02:36:29.282Z,10.25
2022-10-26T02:38:58.309Z,10.93
2022-10-26T02:41:28.346Z,10.80
2022-10-26T02:44:25.889Z,9.15
2022-10-26T02:46:54.810Z,9.63
2022-10-26T02:49:22.505Z,9.43
2022-10-26T02:52:11.403Z,9.75
2022-10-26T02:55:17.549Z,9.45
2022-10-26T02:57:50.705Z,8.43
2022-10-26T03:00:19.392Z,9.63
2022-10-26T03:02:54.050Z,8.73
2022-10-26T03:05:28.321Z,9.38
2022-10-26T03:07:56.272Z,9.20
2022-10-26T03:10:23.748Z,9.05
2022-10-26T03:12:52.386Z,9.70
2022-10-26T03:15:20.189Z,9.93
2022-10-26T03:17:48.167Z,10.45
2022-10-26T03:20:16.039Z,9.32
2022-10-26T03:22:43.495Z,8.63
2022-10-26T03:25:11.108Z,9.82
2022-10-26T03:27:38.966Z,10.00
2022-10-26T03:30:07.042Z,9.40
2022-10-26T03:32:34.516Z,8.80
2022-10-26T03:35:01.891Z,8.85
2022-10-26T03:37:29.507Z,9.15
2022-10-26T03:39:56.927Z,9.88
2022-10-26T03:42:24.340Z,9.85
2022-10-26T03:44:51.877Z,9.30
2022-10-26T03:47:19.243Z,9.25
2022-10-26T03:49:46.886Z,10.02
2022-10-26T03:52:14.295Z,8.73
2022-10-26T03:54:41.751Z,9.77
2022-10-26T03:57:09.188Z,8.73
2022-10-26T03:59:37.274Z,9.45
2022-10-26T04:02:04.701Z,9.90
2022-10-26T04:04:32.278Z,11.10
2022-10-26T04:06:59.960Z,10.95
2022-10-26T04:09:27.315Z,10.63
2022-10-26T04:11:54.651Z,11.57
2022-10-26T04:14:22.244Z,11.00
2022-10-26T04:16:49.737Z,10.48
2022-10-26T04:19:17.123Z,10.60
2022-10-26T04:21:44.581Z,9.27
2022-10-26T04:24:12.416Z,9.23
2022-10-26T04:26:40.075Z,8.75
2022-10-26T04:29:07.829Z,11.23
2022-10-26T04:31:35.304Z,10.85
2022-10-26T04:34:02.830Z,10.32
2022-10-26T04:36:30.658Z,11.70
2022-10-26T04:38:58.041Z,11.15
2022-10-26T04:41:25.477Z,11.50
2022-10-26T04:43:52.839Z,10.57
2022-10-26T04:46:20.226Z,11.07
2022-10-26T04:48:50.760Z,10.32
2022-10-26T04:51:18.277Z,10.40
2022-10-26T04:53:45.707Z,9.88
2022-10-26T04:56:13.169Z,9.35
2022-10-26T04:58:40.591Z,10.15
2022-10-26T05:01:08.090Z,9.75
2022-10-26T05:03:35.574Z,10.25
2022-10-26T05:06:03.145Z,10.30
2022-10-26T05:08:30.568Z,9.73
2022-10-26T05:10:57.988Z,8.95
2022-10-26T05:13:28.291Z,9.85
2022-10-26T05:15:55.717Z,11.77
2022-10-26T05:18:23.248Z,10.68
2022-10-26T05:20:53.587Z,10.38
2022-10-26T05:23:21.709Z,10.85
2022-10-26T05:25:49.684Z,10.85
2022-10-26T05:28:18.857Z,11.85
2022-10-26T05:30:47.181Z,12.20
2022-10-26T05:33:15.241Z,11.00
2022-10-26T05:35:43.070Z,12.15
2022-10-26T05:38:16.061Z,9.63
2022-10-26T05:40:54.705Z,9.90
2022-10-26T05:43:24.239Z,9.85
2022-10-26T05:45:52.031Z,9.40
2022-10-26T05:48:22.038Z,10.07
2022-10-26T05:50:49.482Z,10.68
2022-10-26T05:53:16.863Z,10.43
2022-10-26T05:55:44.867Z,10.57
2022-10-26T05:58:14.489Z,9.88
2022-10-26T06:01:23.258Z,9.55
2022-10-26T06:04:02.541Z,9.73
2022-10-26T06:06:42.362Z,10.77
2022-10-26T06:09:13.919Z,10.43
2022-10-26T06:11:41.899Z,10.02
2022-10-26T06:14:10.408Z,10.50
2022-10-26T06:17:04.744Z,11.50
2022-10-26T06:19:50.520Z,9.88
2022-10-26T06:22:31.271Z,10.15
2022-10-26T06:25:19.948Z,10.23
2022-10-26T06:27:57.044Z,10.32
2022-10-26T06:30:24.577Z,11.25
2022-10-26T06:33:06.001Z,10.75
2022-10-26T06:35:57.072Z,11.30
2022-10-26T06:38:27.539Z,11.38
2022-10-26T06:40:57.143Z,11.60
2022-10-26T06:43:34.047Z,11.75
2022-10-26T06:46:26.445Z,10.98
2022-10-26T06:49:18.799Z,11.95
2022-10-26T06:51:56.903Z,11.90
2022-10-26T06:54:45.599Z,13.73
2022-10-26T06:57:15.860Z,12.25
2022-10-26T06:59:50.695Z,12.18
2022-10-26T07:02:18.726Z,13.43
2022-10-26T07:04:46.556Z,14.10
2022-10-26T07:07:22.555Z,14.30
2022-10-26T07:09:50.522Z,14.65
2022-10-26T07:12:18.016Z,15.38
2022-10-26T07:14:45.474Z,14.95
2022-10-26T07:17:12.896Z,15.43
2022-10-26T07:19:44.940Z,15.60
2022-10-26T07:22:12.833Z,14.95
2022-10-26T07:24:40.487Z,15.20
2022-10-26T07:27:07.995Z,13.63
2022-10-26T07:29:35.575Z,13.65
2022-10-26T07:32:03.210Z,12.68
2022-10-26T07:34:30.674Z,13.98
2022-10-26T07:37:00.299Z,12.15
2022-10-26T07:39:27.893Z,12.95
2022-10-26T07:41:55.316Z,14.27
2022-10-26T07:44:22.831Z,13.77
2022-10-26T07:46:51.213Z,13.77
2022-10-26T07:49:19.613Z,13.23
2022-10-26T07:51:47.492Z,15.43
2022-10-26T07:54:14.936Z,14.48
2022-10-26T07:56:42.447Z,14.02
2022-10-26T07:59:13.262Z,16.02
2022-10-26T08:01:40.839Z,15.25
2022-10-26T08:04:08.494Z,13.60
2022-10-26T08:06:36.069Z,14.13
2022-10-26T08:09:03.990Z,12.50
2022-10-26T08:11:31.429Z,12.63
2022-10-26T08:13:58.878Z,13.43
2022-10-26T08:16:26.445Z,13.60
2022-10-26T08:18:53.897Z,12.23
2022-10-26T08:21:30.388Z,13.20
2022-10-26T08:26:31.190Z,12.27
2022-10-26T08:28:58.577Z,12.43
2022-10-26T08:31:26.030Z,13.73
2022-10-26T08:33:53.494Z,13.32
2022-10-26T08:36:25.104Z,13.48
2022-10-26T08:38:52.715Z,14.07
2022-10-26T08:41:43.008Z,15.00
2022-10-26T08:44:31.306Z,14.85
2022-10-26T08:47:06.555Z,14.48
2022-10-26T08:50:02.133Z,14.27
2022-10-26T08:52:50.674Z,13.60
2022-10-26T08:55:26.650Z,14.32
2022-10-26T08:57:55.035Z,14.90
2022-10-26T09:00:25.187Z,15.98
2022-10-26T09:02:54.049Z,14.55
2022-10-26T09:05:36.893Z,13.75
2022-10-26T09:08:15.015Z,15.65
2022-10-26T09:11:16.706Z,16.13
2022-10-26T09:13:55.211Z,15.38
2022-10-26T09:16:27.827Z,15.98
2022-10-26T09:19:08.861Z,15.30
2022-10-26T09:22:09.628Z,15.13
2022-10-26T09:24:47.390Z,15.32
2022-10-26T09:27:17.635Z,15.55
2022-10-26T09:29:45.386Z,15.82
2022-10-26T09:32:21.786Z,15.55
2022-10-26T09:34:56.169Z,16.45
2022-10-26T09:37:28.304Z,15.95
2022-10-26T09:43:02.448Z,15.32
2022-10-26T09:45:39.868Z,13.95
2022-10-26T09:48:20.333Z,13.20
2022-10-26T09:50:50.032Z,14.63
2022-10-26T09:53:17.532Z,15.15
2022-10-26T09:55:49.695Z,13.13
2022-10-26T10:00:47.777Z,13.57
2022-10-26T10:03:29.540Z,13.82
2022-10-26T10:06:17.522Z,13.77
2022-10-26T10:09:11.223Z,14.10
2022-10-26T10:11:46.553Z,13.90
2022-10-26T10:14:17.739Z,13.50
2022-10-26T10:17:03.412Z,14.18
2022-10-26T10:19:36.411Z,15.15
2022-10-26T10:22:18.737Z,13.85
2022-10-26T10:27:28.283Z,14.77
2022-10-26T10:30:00.006Z,14.52
2022-10-26T10:32:35.711Z,14.93
2022-10-26T10:35:24.219Z,15.75
2022-10-26T10:37:52.502Z,15.32
2022-10-26T10:40:29.343Z,15.57
2022-10-26T10:43:06.812Z,14.25
2022-10-26T10:45:36.129Z,14.40
2022-10-26T10:48:11.970Z,13.70
2022-10-26T10:50:57.579Z,12.93
2022-10-26T10:53:38.251Z,12.25
2022-10-26T10:56:40.030Z,10.98
2022-10-26T10:59:26.098Z,11.45
2022-10-26T11:02:20.065Z,11.35
2022-10-26T11:05:24.763Z,9.48
2022-10-26T11:08:15.731Z,9.70
2022-10-26T11:10:49.070Z,10.18
2022-10-26T11:13:25.939Z,10.13
2022-10-26T11:15:59.526Z,10.43
2022-10-26T11:18:57.796Z,9.90
2022-10-26T11:21:28.957Z,9.90
2022-10-26T11:24:13.114Z,10.57
2022-10-26T11:26:54.233Z,10.48
2022-10-26T11:29:54.119Z,10.43
2022-10-26T11:32:48.425Z,9.98
2022-10-26T11:35:57.912Z,11.05
2022-10-26T11:38:46.765Z,11.95
2022-10-26T11:41:55.676Z,11.10
2022-10-26T11:44:40.203Z,11.77
2022-10-26T11:47:22.753Z,13.10
2022-10-26T11:50:22.061Z,13.20
2022-10-26T11:53:01.008Z,12.60
2022-10-26T11:55:29.770Z,10.88
2022-10-26T11:57:58.684Z,11.18
2022-10-26T12:00:27.136Z,12.48
2022-10-26T12:03:08.816Z,12.88
2022-10-26T12:05:52.414Z,14.15
2022-10-26T12:08:30.948Z,13.07
2022-10-26T12:11:32.520Z,14.48
2022-10-26T12:14:28.057Z,13.85
2022-10-26T12:17:17.961Z,13.55
2022-10-26T12:20:17.658Z,13.13
2022-10-26T12:22:45.761Z,14.45
2022-10-26T12:25:16.168Z,12.23
2022-10-26T12:27:43.624Z,13.35
2022-10-26T12:30:28.159Z,12.63
2022-10-26T12:32:58.416Z,13.00
2022-10-26T12:35:40.660Z,11.13
2022-10-26T12:38:31.644Z,11.52
2022-10-26T12:41:07.429Z,12.35
2022-10-26T12:43:40.069Z,11.45
2022-10-26T12:46:13.824Z,10.95
2022-10-26T12:48:43.669Z,10.02
2022-10-26T12:51:23.072Z,9.52
2022-10-26T12:54:27.638Z,10.40
2022-10-26T12:57:24.448Z,10.25
2022-10-26T13:00:15.945Z,10.27
2022-10-26T13:03:24.979Z,9.48
2022-10-26T13:06:07.492Z,10.27
2022-10-26T13:08:47.457Z,10.85
2022-10-26T13:11:30.028Z,10.88
2022-10-26T13:14:01.189Z,8.90
2022-10-26T13:16:30.087Z,10.95
2022-10-26T13:18:59.349Z,10.95
2022-10-26T13:21:27.901Z,11.02
2022-10-26T13:23:55.806Z,10.05
2022-10-26T13:26:26.134Z,10.95
2022-10-26T13:29:00.108Z,10.98
2022-10-26T13:31:33.368Z,11.68
2022-10-26T13:34:09.707Z,11.70
2022-10-26T13:36:59.840Z,12.80
2022-10-26T13:39:32.002Z,10.85
2022-10-26T13:44:37.633Z,11.05
2022-10-26T13:47:11.239Z,11.98
2022-10-26T13:49:41.214Z,11.43
2022-10-26T13:52:24.057Z,12.55
2022-10-26T13:55:02.876Z,11.95
2022-10-26T13:57:42.949Z,11.88
2022-10-26T14:00:31.369Z,12.40
2022-10-26T14:02:58.880Z,13.88
2022-10-26T14:05:26.596Z,13.55
2022-10-26T14:07:57.587Z,14.38
2022-10-26T14:10:32.919Z,14.07
2022-10-26T14:13:01.576Z,13.90
2022-10-26T14:15:32.071Z,14.23
2022-10-26T14:18:01.731Z,13.65
2022-10-26T14:20:31.711Z,15.50
2022-10-26T14:22:59.197Z,15.77
2022-10-26T14:25:42.410Z,16.40
2022-10-26T14:28:31.910Z,15.32
2022-10-26T14:31:27.221Z,15.25
2022-10-26T14:33:56.378Z,17.48
2022-10-26T14:36:29.325Z,15.23
2022-10-26T14:39:07.905Z,16.13
2022-10-26T14:41:36.467Z,16.75
2022-10-26T14:44:04.291Z,15.80
2022-10-26T14:46:35.384Z,15.90
2022-10-26T14:49:04.039Z,15.52
2022-10-26T14:51:35.949Z,17.17
2022-10-26T14:54:04.313Z,14.65
2022-10-26T14:56:34.654Z,16.45
2022-10-26T14:59:20.732Z,16.98
2022-10-26T15:02:12.946Z,17.67
2022-10-26T15:04:42.399Z,17.08
2022-10-26T15:07:12.898Z,17.67
2022-10-26T15:09:47.354Z,18.55
2022-10-26T15:12:41.284Z,16.55
2022-10-26T15:15:14.680Z,16.85
2022-10-26T15:17:54.259Z,17.80
2022-10-26T15:20:24.492Z,16.85
2022-10-26T15:23:02.782Z,17.58
2022-10-26T15:25:33.069Z,16.95
2022-10-26T15:28:19.604Z,16.83
2022-10-26T15:31:11.939Z,18.30
2022-10-26T15:33:43.607Z,18.27
2022-10-26T15:36:23.444Z,18.25
2022-10-26T15:38:55.638Z,18.00
2022-10-26T15:44:02.759Z,18.00
2022-10-26T15:46:32.314Z,15.93
2022-10-26T15:49:02.501Z,17.40
2022-10-26T15:51:30.338Z,16.50
2022-10-26T15:53:58.630Z,16.85
2022-10-26T15:56:26.797Z,16.02
2022-10-26T15:58:54.922Z,15.32
2022-10-26T16:01:24.784Z,15.95
2022-10-26T16:03:53.167Z,14.50
2022-10-26T16:06:20.576Z,14.93
2022-10-26T16:08:53.614Z,15.10
2022-10-26T16:11:21.089Z,16.30
2022-10-26T16:16:19.343Z,17.10
2022-10-26T16:18:49.104Z,18.55
2022-10-26T16:21:19.050Z,15.45
2022-10-26T16:23:48.031Z,15.30
2022-10-26T16:26:15.900Z,15.95
2022-10-26T16:28:43.542Z,17.00
2022-10-26T16:31:13.191Z,17.20
2022-10-26T16:33:40.703Z,17.08
2022-10-26T16:36:10.492Z,15.23
2022-10-26T16:38:38.499Z,17.10
2022-10-26T16:41:13.902Z,18.00
2022-10-26T16:43:43.445Z,15.77
2022-10-26T16:46:12.432Z,16.55
2022-10-26T16:48:41.379Z,17.38
2022-10-26T16:51:17.334Z,16.80
2022-10-26T16:53:47.985Z,17.27
2022-10-26T16:56:18.141Z,17.05
2022-10-26T16:58:45.671Z,17.27
2022-10-26T17:01:18.161Z,18.35
2022-10-26T17:03:51.730Z,19.13
2022-10-26T17:06:19.732Z,20.10
2022-10-26T17:08:47.648Z,18.13
2022-10-26T17:11:18.822Z,16.15
2022-10-26T17:13:47.091Z,15.55
2022-10-26T17:16:19.697Z,16.35
2022-10-26T17:18:47.861Z,16.83
2022-10-26T17:21:17.527Z,19.38
2022-10-26T17:23:45.273Z,17.70
2022-10-26T17:26:14.179Z,20.23
2022-10-26T17:28:41.999Z,19.65
2022-10-26T17:31:12.445Z,19.73
2022-10-26T17:33:42.826Z,18.52
2022-10-26T17:36:12.608Z,20.40
2022-10-26T17:38:41.265Z,20.95
2022-10-26T17:41:10.969Z,19.73
2022-10-26T17:43:40.084Z,19.35
2022-10-26T17:46:29.080Z,19.35
2022-10-26T17:48:57.832Z,20.40
2022-10-26T17:51:26.513Z,19.05
2022-10-26T17:53:54.351Z,20.85
2022-10-26T17:56:24.243Z,20.23
2022-10-26T17:58:53.709Z,20.65
2022-10-26T18:01:21.202Z,17.60
2022-10-26T18:03:48.879Z,16.83
2022-10-26T18:06:17.486Z,17.73
2022-10-26T18:08:45.688Z,17.67
2022-10-26T18:11:19.106Z,19.58
2022-10-26T18:13:48.914Z,19.30
2022-10-26T18:16:18.097Z,18.05
2022-10-26T18:18:49.923Z,19.05
2022-10-26T18:21:19.652Z,20.02
2022-10-26T18:23:47.468Z,19.80
2022-10-26T18:26:17.534Z,21.45
2022-10-26T18:28:45.946Z,22.38
2022-10-26T18:31:15.848Z,20.95
2022-10-26T18:33:43.506Z,19.13
2022-10-26T18:36:14.127Z,21.30
2022-10-26T18:38:42.257Z,21.17
2022-10-26T18:41:13.674Z,20.17
2022-10-26T18:43:42.596Z,20.90
2022-10-26T18:46:17.739Z,22.85
2022-10-26T18:48:48.468Z,23.52
2022-10-26T18:51:19.286Z,21.35
2022-10-26T18:53:47.744Z,21.83
2022-10-26T18:56:17.819Z,21.20
2022-10-26T18:58:48.032Z,23.50
2022-10-26T19:01:27.236Z,22.95
2022-10-26T19:04:03.859Z,21.77
2022-10-26T19:06:34.311Z,22.05
2022-10-26T19:09:02.621Z,20.65
2022-10-26T19:11:30.835Z,20.60
2022-10-26T19:13:58.599Z,20.83
2022-10-26T19:16:45.547Z,18.98
2022-10-26T19:19:14.954Z,25.95
2022-10-26T19:21:42.592Z,23.80
2022-10-26T19:24:24.261Z,21.77
2022-10-26T19:26:54.089Z,20.60
2022-10-26T19:29:21.670Z,19.27
2022-10-26T19:31:52.473Z,18.67
2022-10-26T19:34:19.991Z,19.20
2022-10-26T19:36:47.746Z,18.55
2022-10-26T19:39:16.884Z,21.05
2022-10-26T19:41:45.838Z,19.15
2022-10-26T19:44:14.512Z,18.98
2022-10-26T19:46:43.288Z,19.00
2022-10-26T19:49:12.491Z,18.90
2022-10-26T19:51:40.126Z,19.88
2022-10-26T19:54:07.765Z,17.73
2022-10-26T19:56:37.002Z,20.00
2022-10-26T19:59:05.496Z,19.73
2022-10-26T20:01:33.324Z,19.88
2022-10-26T20:04:02.636Z,21.17
2022-10-26T20:06:31.060Z,19.80
2022-10-26T20:08:59.844Z,19.00
2022-10-26T20:11:27.423Z,18.83
2022-10-26T20:13:56.482Z,19.58
2022-10-26T20:16:24.667Z,20.42
2022-10-26T20:18:52.181Z,21.30
2022-10-26T20:21:19.657Z,20.35
2022-10-26T20:23:47.115Z,20.20
2022-10-26T20:26:18.904Z,20.13
2022-10-26T20:28:51.205Z,19.58
2022-10-26T20:31:19.774Z,19.52
2022-10-26T20:33:50.947Z,18.42
2022-10-26T20:36:18.553Z,18.83
2022-10-26T20:38:46.246Z,19.45
2022-10-26T20:41:14.155Z,22.27
2022-10-26T20:43:42.740Z,21.50
2022-10-26T20:46:11.826Z,24.75
2022-10-26T20:48:39.841Z,23.95
2022-10-26T20:51:15.586Z,23.63
2022-10-26T20:53:59.071Z,21.83
2022-10-26T20:58:55.904Z,18.48
2022-10-26T21:01:33.789Z,19.98
2022-10-26T21:04:03.566Z,24.50
2022-10-26T21:06:39.764Z,20.50
2022-10-26T21:09:08.664Z,23.02
2022-10-26T21:11:36.456Z,26.25
2022-10-26T21:14:05.204Z,24.50
2022-10-26T21:16:32.759Z,25.50
2022-10-26T21:19:00.378Z,26.10
2022-10-26T21:21:27.798Z,24.40
2022-10-26T21:23:55.421Z,25.10
2022-10-26T21:26:22.805Z,25.85
2022-10-26T21:28:50.353Z,26.70
2022-10-26T21:31:18.952Z,25.40
2022-10-26T21:33:47.101Z,22.83
2022-10-26T21:36:15.799Z,22.98
2022-10-26T21:38:44.683Z,22.38
2022-10-26T21:41:17.765Z,24.10
2022-10-26T21:43:48.011Z,23.13
2022-10-26T21:46:17.338Z,26.08
2022-10-26T21:48:45.794Z,22.38
2022-10-26T21:51:18.435Z,21.30
2022-10-26T21:53:46.157Z,21.02
2022-10-26T21:56:19.356Z,23.35
2022-10-26T21:58:47.680Z,23.00
2022-10-26T22:01:20.356Z,21.83
2022-10-26T22:03:48.672Z,21.85
2022-10-26T22:08:52.602Z,21.45
2022-10-26T22:11:22.998Z,21.02
2022-10-26T22:13:51.600Z,21.90
2022-10-26T22:16:28.048Z,20.25
2022-10-26T22:18:57.165Z,21.73
2022-10-26T22:21:26.914Z,20.95
2022-10-26T22:23:55.052Z,21.58
2022-10-26T22:26:24.402Z,21.75
2022-10-26T22:28:55.059Z,22.23
2022-10-26T22:31:27.405Z,23.52
2022-10-26T22:36:32.353Z,23.02
2022-10-26T22:38:59.880Z,24.40
2022-10-26T22:41:27.461Z,22.58
2022-10-26T22:43:54.960Z,25.65
2022-10-26T22:46:24.681Z,25.85
2022-10-26T22:48:59.850Z,25.15
2022-10-26T22:51:32.732Z,27.63
2022-10-26T22:54:01.894Z,25.80
2022-10-26T22:56:30.990Z,24.60
2022-10-26T22:58:58.797Z,21.67
2022-10-26T23:01:31.694Z,21.60
2022-10-26T23:04:00.046Z,20.40
2022-10-26T23:06:29.639Z,21.15
2022-10-26T23:08:57.710Z,20.80
2022-10-26T23:11:27.107Z,21.02
2022-10-26T23:13:56.135Z,20.63
2022-10-26T23:16:24.433Z,21.05
2022-10-26T23:18:55.222Z,22.05
2022-10-26T23:23:58.005Z,21.42
2022-10-26T23:26:25.943Z,22.83
2022-10-26T23:28:53.397Z,27.02
2022-10-26T23:31:28.014Z,29.48
2022-10-26T23:33:56.631Z,29.38
2022-10-26T23:36:24.600Z,26.83
2022-10-26T23:38:52.403Z,23.70
2022-10-26T23:41:19.815Z,21.85
2022-10-26T23:43:47.214Z,21.88
2022-10-26T23:46:14.767Z,21.80
2022-10-26T23:48:42.300Z,25.60
2022-10-26T23:51:09.743Z,23.02
2022-10-26T23:53:37.130Z,26.17
2022-10-26T23:56:04.735Z,26.83
2022-10-26T23:58:32.171Z,26.33
